createdAt,value
2022-12-23T00:01:17.469Z,10.37
2022-12-23T00:04:20.576Z,4.37
2022-12-23T00:07:23.749Z,32.07
2022-12-23T00:13:48.068Z,8.80
2022-12-23T00:16:51.978Z,11.27
2022-12-23T00:19:55.094Z,29.17
2022-12-23T00:26:16.078Z,11.17
2022-12-23T00:29:19.238Z,21.10
2022-12-23T00:32:22.385Z,22.00
2022-12-23T00:35:25.490Z,5.47
2022-12-23T00:38:47.324Z,17.23
2022-12-23T00:42:08.681Z,20.43
2022-12-23T00:45:17.787Z,28.27
2022-12-23T00:48:39.493Z,5.37
2022-12-23T00:51:42.697Z,2.07
2022-12-23T00:54:46.113Z,14.33
2022-12-23T00:57:49.576Z,21.57
2022-12-23T01:01:12.772Z,33.33
2022-12-23T01:04:35.667Z,45.58
2022-12-23T01:07:38.913Z,9.48
2022-12-23T01:10:42.113Z,8.17
2022-12-23T01:13:45.205Z,11.70
2022-12-23T01:19:52.221Z,17.08
2022-12-23T01:22:55.385Z,7.70
2022-12-23T01:26:00.478Z,35.10
2022-12-23T01:29:03.690Z,5.33
2022-12-23T01:35:09.737Z,18.35
2022-12-23T01:38:13.179Z,11.37
2022-12-23T01:41:46.892Z,13.43
2022-12-23T01:44:51.955Z,3.60
2022-12-23T01:48:10.829Z,4.10
2022-12-23T01:51:23.971Z,4.60
2022-12-23T01:54:27.419Z,4.22
2022-12-23T01:57:31.102Z,9.40
2022-12-23T02:00:52.400Z,7.10
2022-12-23T02:04:00.252Z,9.70
2022-12-23T02:07:22.442Z,13.30
2022-12-23T02:10:34.470Z,7.57
2022-12-23T02:14:12.214Z,5.47
2022-12-23T02:17:47.723Z,7.47
2022-12-23T02:21:08.589Z,14.57
2022-12-23T02:24:57.119Z,8.47
2022-12-23T02:28:42.165Z,5.00
2022-12-23T02:32:03.219Z,8.43
2022-12-23T02:35:09.079Z,8.90
2022-12-23T02:38:12.186Z,5.53
2022-12-23T02:41:29.244Z,8.13
2022-12-23T02:44:42.743Z,7.03
2022-12-23T02:50:55.620Z,6.77
2022-12-23T02:54:03.208Z,7.13
2022-12-23T02:57:08.762Z,2.57
2022-12-23T03:00:13.364Z,3.50
2022-12-23T03:03:17.958Z,12.67
2022-12-23T03:06:31.103Z,5.27
2022-12-23T03:09:46.128Z,21.00
2022-12-23T03:13:20.023Z,9.97
2022-12-23T03:16:42.703Z,4.65
2022-12-23T03:19:59.717Z,7.67
2022-12-23T03:23:31.260Z,9.40
2022-12-23T03:26:37.139Z,3.43
2022-12-23T03:29:49.118Z,10.87
2022-12-23T03:32:55.403Z,4.40
2022-12-23T03:36:17.478Z,5.33
2022-12-23T03:39:26.460Z,5.93
2022-12-23T03:42:45.821Z,2.93
2022-12-23T03:46:04.259Z,3.43
2022-12-23T03:49:12.546Z,4.97
2022-12-23T03:52:21.681Z,4.20
2022-12-23T03:55:33.933Z,7.63
2022-12-23T03:58:42.797Z,3.50
2022-12-23T04:02:04.035Z,16.13
2022-12-23T04:05:32.335Z,3.93
2022-12-23T04:08:38.158Z,5.50
2022-12-23T04:11:41.590Z,5.77
2022-12-23T04:14:49.586Z,5.23
2022-12-23T04:17:54.051Z,11.07
2022-12-23T04:20:57.255Z,13.73
2022-12-23T04:24:00.395Z,12.63
2022-12-23T04:27:04.007Z,2.58
2022-12-23T04:30:11.500Z,1.43
2022-12-23T04:33:17.628Z,9.57
2022-12-23T04:36:20.765Z,13.73
2022-12-23T04:39:24.044Z,6.03
2022-12-23T04:42:27.172Z,10.80
2022-12-23T04:45:30.242Z,6.05
2022-12-23T04:48:33.275Z,13.43
2022-12-23T04:51:37.001Z,12.77
2022-12-23T04:54:45.762Z,7.73
2022-12-23T04:57:50.028Z,11.40
2022-12-23T05:04:10.553Z,2.37
2022-12-23T05:07:13.637Z,8.73
2022-12-23T05:10:16.837Z,6.13
2022-12-23T05:13:20.269Z,4.90
2022-12-23T05:16:23.787Z,6.65
2022-12-23T05:19:26.906Z,5.18
2022-12-23T05:22:30.048Z,2.20
2022-12-23T05:25:37.560Z,5.85
2022-12-23T05:28:40.718Z,6.13
2022-12-23T05:31:44.673Z,2.40
2022-12-23T05:34:48.019Z,5.50
2022-12-23T05:37:51.363Z,2.28
2022-12-23T05:40:54.891Z,2.25
2022-12-23T05:43:58.092Z,3.97
2022-12-23T05:47:01.230Z,1.52
2022-12-23T05:50:05.062Z,1.52
2022-12-23T05:53:08.517Z,1.73
2022-12-23T05:56:11.564Z,5.05
2022-12-23T05:59:14.614Z,4.97
2022-12-23T06:02:17.905Z,3.97
2022-12-23T06:05:21.562Z,1.80
2022-12-23T06:11:28.378Z,3.47
2022-12-23T06:14:31.479Z,4.05
2022-12-23T06:17:34.753Z,4.75
2022-12-23T06:20:38.159Z,2.53
2022-12-23T06:23:41.217Z,6.10
2022-12-23T06:26:44.369Z,3.53
2022-12-23T06:29:47.495Z,4.05
2022-12-23T06:32:51.135Z,2.30
2022-12-23T06:35:55.001Z,3.40
2022-12-23T06:38:58.525Z,3.30
2022-12-23T06:42:01.752Z,6.97
2022-12-23T06:45:05.142Z,9.57
2022-12-23T06:48:08.453Z,5.38
2022-12-23T06:51:12.163Z,3.05
2022-12-23T06:54:15.358Z,3.67
2022-12-23T06:57:18.645Z,3.05
2022-12-23T07:00:21.841Z,4.85
2022-12-23T07:03:25.103Z,3.40
2022-12-23T07:06:28.285Z,5.85
2022-12-23T07:09:31.477Z,2.35
2022-12-23T07:12:34.775Z,4.03
2022-12-23T07:15:38.904Z,3.58
2022-12-23T07:18:45.287Z,3.93
2022-12-23T07:21:48.394Z,4.30
2022-12-23T07:24:51.416Z,7.63
2022-12-23T07:27:57.878Z,3.72
2022-12-23T07:31:01.159Z,5.07
2022-12-23T07:34:04.368Z,6.55
2022-12-23T07:37:07.453Z,9.88
2022-12-23T07:40:11.526Z,6.78
2022-12-23T07:43:14.752Z,7.57
2022-12-23T07:46:17.949Z,4.00
2022-12-23T07:49:21.131Z,8.00
2022-12-23T07:52:24.256Z,4.90
2022-12-23T07:55:27.728Z,7.97
2022-12-23T07:58:30.841Z,6.88
2022-12-23T08:01:34.045Z,2.45
2022-12-23T08:04:42.566Z,5.03
2022-12-23T08:07:50.567Z,3.23
2022-12-23T08:10:59.058Z,5.23
2022-12-23T08:14:02.149Z,2.83
2022-12-23T08:17:05.603Z,4.95
2022-12-23T08:20:09.424Z,6.43
2022-12-23T08:23:12.845Z,16.90
2022-12-23T08:26:18.916Z,7.32
2022-12-23T08:29:22.043Z,7.13
2022-12-23T08:32:28.043Z,6.47
2022-12-23T08:35:31.565Z,6.27
2022-12-23T08:38:35.175Z,13.10
2022-12-23T08:41:41.717Z,7.22
2022-12-23T08:44:44.917Z,7.53
2022-12-23T08:47:48.023Z,7.97
2022-12-23T08:50:51.217Z,11.15
2022-12-23T08:54:00.847Z,11.88
2022-12-23T08:57:04.645Z,12.07
2022-12-23T09:00:08.431Z,15.30
2022-12-23T09:03:11.725Z,14.87
2022-12-23T09:06:24.700Z,20.23
2022-12-23T09:09:31.533Z,13.57
2022-12-23T09:12:34.741Z,16.25
2022-12-23T09:15:45.059Z,5.97
2022-12-23T09:18:48.225Z,4.47
2022-12-23T09:21:51.527Z,5.60
2022-12-23T09:25:01.247Z,2.97
2022-12-23T09:28:08.095Z,19.20
2022-12-23T09:31:13.153Z,18.52
2022-12-23T09:34:16.356Z,19.00
2022-12-23T09:37:19.480Z,22.55
2022-12-23T09:40:23.871Z,12.38
2022-12-23T09:43:39.664Z,11.03
2022-12-23T09:46:54.880Z,13.00
2022-12-23T09:50:04.333Z,14.47
2022-12-23T09:53:20.283Z,22.63
2022-12-23T09:56:37.223Z,20.93
2022-12-23T10:00:12.926Z,15.40
2022-12-23T10:03:25.388Z,29.43
2022-12-23T10:06:30.257Z,28.43
2022-12-23T10:09:38.722Z,31.73
2022-12-23T10:12:45.811Z,30.30
2022-12-23T10:15:52.793Z,16.50
2022-12-23T10:19:21.794Z,17.53
2022-12-23T10:22:33.141Z,30.20
2022-12-23T10:25:41.587Z,18.67
2022-12-23T10:28:44.622Z,21.03
2022-12-23T10:32:12.708Z,21.20
2022-12-23T10:35:42.846Z,22.50
2022-12-23T10:38:57.575Z,19.83
2022-12-23T10:42:56.011Z,25.70
2022-12-23T10:46:26.297Z,31.90
2022-12-23T10:50:02.423Z,37.67
2022-12-23T10:53:11.573Z,20.97
2022-12-23T10:56:15.123Z,31.87
2022-12-23T10:59:27.219Z,21.77
2022-12-23T11:02:44.298Z,18.33
2022-12-23T11:05:50.497Z,21.53
2022-12-23T11:08:54.223Z,32.13
2022-12-23T11:12:09.433Z,31.07
2022-12-23T11:15:37.820Z,22.97
2022-12-23T11:18:57.283Z,40.20
2022-12-23T11:22:02.093Z,50.07
2022-12-23T11:25:28.441Z,32.70
2022-12-23T11:28:33.322Z,38.93
2022-12-23T11:31:37.311Z,29.23
2022-12-23T11:34:44.917Z,52.20
2022-12-23T11:37:48.175Z,46.17
2022-12-23T11:40:51.961Z,53.10
2022-12-23T11:44:06.058Z,31.17
2022-12-23T11:47:35.603Z,20.45
2022-12-23T11:50:41.993Z,39.20
2022-12-23T11:53:45.665Z,28.50
2022-12-23T12:00:00.947Z,11.37
2022-12-23T12:03:06.049Z,21.50
2022-12-23T12:06:14.750Z,20.87
2022-12-23T12:09:18.496Z,29.77
2022-12-23T12:12:23.032Z,31.20
2022-12-23T12:15:58.346Z,37.27
2022-12-23T12:19:26.818Z,39.70
2022-12-23T12:23:02.395Z,26.60
2022-12-23T12:26:18.530Z,26.63
2022-12-23T12:29:27.445Z,56.07
2022-12-23T12:32:44.328Z,38.23
2022-12-23T12:36:01.725Z,20.80
2022-12-23T12:39:30.692Z,43.70
2022-12-23T12:42:49.790Z,57.57
2022-12-23T12:46:19.542Z,64.07
2022-12-23T12:49:29.886Z,40.27
2022-12-23T12:52:39.902Z,44.50
2022-12-23T12:55:49.676Z,17.70
2022-12-23T12:58:52.884Z,22.97
2022-12-23T13:02:29.992Z,26.13
2022-12-23T13:05:38.600Z,39.80
2022-12-23T13:09:01.807Z,22.63
2022-12-23T13:12:18.547Z,19.70
2022-12-23T13:15:21.657Z,28.77
2022-12-23T13:18:54.807Z,22.70
2022-12-23T13:22:16.401Z,24.27
2022-12-23T13:25:25.144Z,24.47
2022-12-23T13:29:18.774Z,13.23
2022-12-23T13:32:21.960Z,16.00
2022-12-23T13:35:37.133Z,32.13
2022-12-23T13:38:42.998Z,17.27
2022-12-23T13:41:49.987Z,25.67
2022-12-23T13:44:53.760Z,49.20
2022-12-23T13:48:34.058Z,30.03
2022-12-23T13:51:49.460Z,34.73
2022-12-23T13:55:17.449Z,27.00
2022-12-23T13:58:23.411Z,15.90
2022-12-23T14:01:48.420Z,50.27
2022-12-23T14:04:59.498Z,41.03
2022-12-23T14:08:24.865Z,28.53
2022-12-23T14:11:29.444Z,44.10
2022-12-23T14:14:32.821Z,55.47
2022-12-23T14:17:52.813Z,28.35
2022-12-23T14:21:14.563Z,26.73
2022-12-23T14:24:55.034Z,26.87
2022-12-23T14:28:31.512Z,24.30
2022-12-23T14:31:43.931Z,19.33
2022-12-23T14:35:22.621Z,37.37
2022-12-23T14:38:31.783Z,33.67
2022-12-23T14:41:50.736Z,35.47
2022-12-23T14:44:54.134Z,27.13
2022-12-23T14:47:57.388Z,67.25
2022-12-23T14:51:05.219Z,59.50
2022-12-23T14:54:08.353Z,39.83
2022-12-23T14:57:20.067Z,27.77
2022-12-23T15:00:23.400Z,32.20
2022-12-23T15:03:27.358Z,26.60
2022-12-23T15:06:40.742Z,30.30
2022-12-23T15:10:00.479Z,37.38
2022-12-23T15:13:06.997Z,32.97
2022-12-23T15:16:17.181Z,39.00
2022-12-23T15:19:27.980Z,63.60
2022-12-23T15:22:34.037Z,39.93
2022-12-23T15:25:42.220Z,53.20
2022-12-23T15:28:45.428Z,32.73
2022-12-23T15:31:54.903Z,70.65
2022-12-23T15:35:04.437Z,62.47
2022-12-23T15:38:07.944Z,50.23
2022-12-23T15:44:25.508Z,33.00
2022-12-23T15:47:39.211Z,21.70
2022-12-23T15:50:42.795Z,31.98
2022-12-23T15:56:54.006Z,27.70
2022-12-23T15:59:58.919Z,25.80
2022-12-23T16:03:04.705Z,34.33
2022-12-23T16:06:35.223Z,55.70
2022-12-23T16:09:38.420Z,39.87
2022-12-23T16:12:43.079Z,52.75
2022-12-23T16:15:47.110Z,43.97
2022-12-23T16:18:50.264Z,42.53
2022-12-23T16:21:53.429Z,28.90
2022-12-23T16:25:13.192Z,48.42
2022-12-23T16:28:23.617Z,16.53
2022-12-23T16:31:26.951Z,35.57
2022-12-23T16:34:32.574Z,62.85
2022-12-23T16:37:35.686Z,24.00
2022-12-23T16:40:39.056Z,78.63
2022-12-23T16:43:49.562Z,70.30
2022-12-23T16:46:54.843Z,28.73
2022-12-23T16:49:57.922Z,20.17
2022-12-23T16:53:01.025Z,33.30
2022-12-23T16:56:10.673Z,36.20
2022-12-23T16:59:14.531Z,29.87
2022-12-23T17:02:30.648Z,48.50
2022-12-23T17:05:34.144Z,26.43
2022-12-23T17:11:44.429Z,21.47
2022-12-23T17:14:47.497Z,44.97
2022-12-23T17:17:51.883Z,25.08
2022-12-23T17:20:55.071Z,17.23
2022-12-23T17:24:12.935Z,16.23
2022-12-23T17:27:18.601Z,14.67
2022-12-23T17:30:26.010Z,19.40
2022-12-23T17:33:31.169Z,8.07
2022-12-23T17:36:34.327Z,14.63
2022-12-23T17:39:37.402Z,16.40
2022-12-23T17:42:41.082Z,5.45
2022-12-23T17:45:45.793Z,23.13
2022-12-23T17:48:49.032Z,16.63
2022-12-23T17:51:52.135Z,17.83
2022-12-23T17:54:56.716Z,9.33
2022-12-23T17:57:59.906Z,15.00
2022-12-23T18:01:03.092Z,27.52
2022-12-23T18:04:06.292Z,23.05
2022-12-23T18:07:11.768Z,21.08
2022-12-23T18:10:17.820Z,12.80
2022-12-23T18:13:22.110Z,15.47
2022-12-23T18:16:25.347Z,7.20
2022-12-23T18:19:28.427Z,10.68
2022-12-23T18:22:31.883Z,13.63
2022-12-23T18:25:34.977Z,30.13
2022-12-23T18:28:38.012Z,34.58
2022-12-23T18:31:51.022Z,29.77
2022-12-23T18:34:55.889Z,37.03
2022-12-23T18:38:00.314Z,9.83
2022-12-23T18:41:03.444Z,5.47
2022-12-23T18:44:06.508Z,10.70
2022-12-23T18:47:10.403Z,9.50
2022-12-23T18:50:13.533Z,1.90
2022-12-23T18:53:23.822Z,6.07
2022-12-23T18:56:27.570Z,5.67
2022-12-23T18:59:33.455Z,24.35
2022-12-23T19:02:36.698Z,9.53
2022-12-23T19:05:39.927Z,6.60
2022-12-23T19:08:44.132Z,8.73
2022-12-23T19:11:48.958Z,9.90
2022-12-23T19:14:52.161Z,19.90
2022-12-23T19:17:55.241Z,15.65
2022-12-23T19:20:58.808Z,4.45
2022-12-23T19:24:03.125Z,18.30
2022-12-23T19:27:06.493Z,9.17
2022-12-23T19:30:14.417Z,5.50
2022-12-23T19:33:17.868Z,39.17
2022-12-23T19:39:27.607Z,4.03
2022-12-23T19:42:31.234Z,5.63
2022-12-23T19:45:34.323Z,41.70
2022-12-23T19:48:38.184Z,15.55
2022-12-23T19:51:41.222Z,8.40
2022-12-23T19:54:44.333Z,6.63
2022-12-23T19:57:47.441Z,28.70
2022-12-23T20:00:50.557Z,17.88
2022-12-23T20:03:56.297Z,20.25
2022-12-23T20:06:59.368Z,33.10
2022-12-23T20:10:02.524Z,30.73
2022-12-23T20:13:05.582Z,23.27
2022-12-23T20:16:09.471Z,6.88
2022-12-23T20:19:12.512Z,11.07
2022-12-23T20:22:15.555Z,36.22
2022-12-23T20:25:18.708Z,27.63
2022-12-23T20:28:22.140Z,4.38
2022-12-23T20:31:28.110Z,7.27
2022-12-23T20:34:38.334Z,29.73
2022-12-23T20:37:41.613Z,4.37
2022-12-23T20:40:44.661Z,10.38
2022-12-23T20:44:02.763Z,26.27
2022-12-23T20:47:11.384Z,16.13
2022-12-23T20:50:15.335Z,10.40
2022-12-23T20:53:18.331Z,9.43
2022-12-23T20:56:22.843Z,7.70
2022-12-23T20:59:26.005Z,6.33
2022-12-23T21:05:32.203Z,6.57
2022-12-23T21:08:36.885Z,6.55
2022-12-23T21:11:43.605Z,23.43
2022-12-23T21:14:46.772Z,7.17
2022-12-23T21:17:49.926Z,20.60
2022-12-23T21:20:53.018Z,1.20
2022-12-23T21:23:58.266Z,6.05
2022-12-23T21:27:01.401Z,9.07
2022-12-23T21:30:04.880Z,9.68
2022-12-23T21:36:17.907Z,3.00
2022-12-23T21:39:22.980Z,12.90
2022-12-23T21:42:26.078Z,25.92
2022-12-23T21:45:29.153Z,5.32
2022-12-23T21:48:34.048Z,7.70
2022-12-23T21:51:40.801Z,4.33
2022-12-23T21:54:44.511Z,7.67
2022-12-23T21:57:48.238Z,2.03
2022-12-23T22:00:51.776Z,10.50
2022-12-23T22:03:56.122Z,13.68
2022-12-23T22:06:59.265Z,7.57
2022-12-23T22:10:02.371Z,12.18
2022-12-23T22:13:06.436Z,1.63
2022-12-23T22:16:11.702Z,4.70
2022-12-23T22:19:15.464Z,5.37
2022-12-23T22:22:18.628Z,11.07
2022-12-23T22:25:22.276Z,5.45
2022-12-23T22:28:25.402Z,4.33
2022-12-23T22:31:35.566Z,11.10
2022-12-23T22:34:38.767Z,7.87
2022-12-23T22:37:41.872Z,12.75
2022-12-23T22:40:50.076Z,7.38
2022-12-23T22:43:53.334Z,5.97
2022-12-23T22:46:56.517Z,12.75
2022-12-23T22:49:59.587Z,19.92
2022-12-23T22:53:02.633Z,10.43
2022-12-23T22:56:06.628Z,4.50
2022-12-23T22:59:24.861Z,16.83
2022-12-23T23:02:28.275Z,5.27
2022-12-23T23:05:31.568Z,20.00
2022-12-23T23:08:35.389Z,9.30
2022-12-23T23:11:38.545Z,18.77
2022-12-23T23:14:53.728Z,17.73
2022-12-23T23:17:57.651Z,6.33
2022-12-23T23:21:01.296Z,7.70
2022-12-23T23:24:05.692Z,6.00
2022-12-23T23:27:08.927Z,17.27
2022-12-23T23:30:12.405Z,8.18
2022-12-23T23:33:15.658Z,4.47
2022-12-23T23:36:18.814Z,8.38
2022-12-23T23:39:21.946Z,7.05
2022-12-23T23:42:25.041Z,13.27
2022-12-23T23:45:28.226Z,24.33
2022-12-23T23:48:31.313Z,12.07
2022-12-23T23:51:34.355Z,6.03
2022-12-23T23:54:37.746Z,15.48
